sensor_id;sensor_type;location;lat;lon;timestamp;P1;durP1;ratioP1;P2;durP2;ratioP2
68310;SDS011;55157;51.036;17.058;2023-05-14T00:01:17;20.63;;;9.70;;
68310;SDS011;55157;51.036;17.058;2023-05-14T00:03:42;17.58;;;10.13;;
68310;SDS011;55157;51.036;17.058;2023-05-14T00:06:07;17.90;;;10.48;;
68310;SDS011;55157;51.036;17.058;2023-05-14T00:08:33;22.33;;;10.40;;
68310;SDS011;55157;51.036;17.058;2023-05-14T00:10:58;23.23;;;11.02;;
68310;SDS011;55157;51.036;17.058;2023-05-14T00:13:25;21.15;;;11.32;;
68310;SDS011;55157;51.036;17.058;2023-05-14T00:15:50;23.23;;;10.55;;
68310;SDS011;55157;51.036;17.058;2023-05-14T00:18:15;17.08;;;10.88;;
68310;SDS011;55157;51.036;17.058;2023-05-14T00:20:40;20.30;;;10.23;;
68310;SDS011;55157;51.036;17.058;2023-05-14T00:23:06;20.98;;;10.70;;
68310;SDS011;55157;51.036;17.058;2023-05-14T00:25:31;20.08;;;9.82;;
68310;SDS011;55157;51.036;17.058;2023-05-14T00:27:56;19.58;;;10.63;;
68310;SDS011;55157;51.036;17.058;2023-05-14T00:30:23;17.15;;;9.73;;
68310;SDS011;55157;51.036;17.058;2023-05-14T00:32:48;16.83;;;10.30;;
68310;SDS011;55157;51.036;17.058;2023-05-14T00:35:13;22.73;;;10.45;;
68310;SDS011;55157;51.036;17.058;2023-05-14T00:37:39;16.23;;;9.77;;
68310;SDS011;55157;51.036;17.058;2023-05-14T00:40:04;19.25;;;10.45;;
68310;SDS011;55157;51.036;17.058;2023-05-14T00:42:30;16.00;;;10.43;;
68310;SDS011;55157;51.036;17.058;2023-05-14T00:44:55;19.42;;;9.02;;
68310;SDS011;55157;51.036;17.058;2023-05-14T00:47:22;20.23;;;9.77;;
68310;SDS011;55157;51.036;17.058;2023-05-14T00:49:47;20.13;;;9.63;;
68310;SDS011;55157;51.036;17.058;2023-05-14T00:52:12;19.55;;;10.93;;
68310;SDS011;55157;51.036;17.058;2023-05-14T00:54:38;15.88;;;10.55;;
68310;SDS011;55157;51.036;17.058;2023-05-14T00:57:03;15.73;;;9.52;;
68310;SDS011;55157;51.036;17.058;2023-05-14T00:59:30;20.55;;;10.38;;
68310;SDS011;55157;51.036;17.058;2023-05-14T01:01:55;14.43;;;9.85;;
68310;SDS011;55157;51.036;17.058;2023-05-14T01:04:22;19.00;;;11.40;;
68310;SDS011;55157;51.036;17.058;2023-05-14T01:06:49;20.85;;;10.60;;
68310;SDS011;55157;51.036;17.058;2023-05-14T01:09:17;16.95;;;10.82;;
68310;SDS011;55157;51.036;17.058;2023-05-14T01:11:47;16.45;;;10.70;;
68310;SDS011;55157;51.036;17.058;2023-05-14T01:14:16;17.40;;;10.35;;
68310;SDS011;55157;51.036;17.058;2023-05-14T01:16:44;16.20;;;10.55;;
68310;SDS011;55157;51.036;17.058;2023-05-14T01:19:20;14.70;;;10.57;;
68310;SDS011;55157;51.036;17.058;2023-05-14T01:21:47;16.30;;;9.70;;
68310;SDS011;55157;51.036;17.058;2023-05-14T01:24:12;17.33;;;9.43;;
68310;SDS011;55157;51.036;17.058;2023-05-14T01:26:37;19.17;;;10.65;;
68310;SDS011;55157;51.036;17.058;2023-05-14T01:29:04;16.23;;;10.27;;
68310;SDS011;55157;51.036;17.058;2023-05-14T01:31:33;19.55;;;10.13;;
68310;SDS011;55157;51.036;17.058;2023-05-14T01:33:59;18.85;;;12.27;;
68310;SDS011;55157;51.036;17.058;2023-05-14T01:36:26;15.73;;;9.00;;
68310;SDS011;55157;51.036;17.058;2023-05-14T01:38:54;17.38;;;10.43;;
68310;SDS011;55157;51.036;17.058;2023-05-14T01:41:20;16.67;;;10.85;;
68310;SDS011;55157;51.036;17.058;2023-05-14T01:43:46;16.88;;;10.88;;
68310;SDS011;55157;51.036;17.058;2023-05-14T01:46:12;20.95;;;10.15;;
68310;SDS011;55157;51.036;17.058;2023-05-14T01:48:37;21.55;;;10.18;;
68310;SDS011;55157;51.036;17.058;2023-05-14T01:51:02;17.10;;;10.00;;
68310;SDS011;55157;51.036;17.058;2023-05-14T01:53:27;20.75;;;10.10;;
68310;SDS011;55157;51.036;17.058;2023-05-14T01:55:54;20.55;;;9.35;;
68310;SDS011;55157;51.036;17.058;2023-05-14T01:58:19;18.92;;;9.90;;
68310;SDS011;55157;51.036;17.058;2023-05-14T02:00:45;15.48;;;10.25;;
68310;SDS011;55157;51.036;17.058;2023-05-14T02:03:10;13.57;;;8.95;;
68310;SDS011;55157;51.036;17.058;2023-05-14T02:05:35;15.30;;;8.57;;
68310;SDS011;55157;51.036;17.058;2023-05-14T02:08:00;14.02;;;8.80;;
68310;SDS011;55157;51.036;17.058;2023-05-14T02:10:26;18.65;;;9.73;;
68310;SDS011;55157;51.036;17.058;2023-05-14T02:12:52;16.67;;;9.63;;
68310;SDS011;55157;51.036;17.058;2023-05-14T02:15:17;16.25;;;10.15;;
68310;SDS011;55157;51.036;17.058;2023-05-14T02:17:43;14.98;;;9.70;;
68310;SDS011;55157;51.036;17.058;2023-05-14T02:20:08;15.85;;;8.70;;
68310;SDS011;55157;51.036;17.058;2023-05-14T02:22:34;15.88;;;9.57;;
68310;SDS011;55157;51.036;17.058;2023-05-14T02:24:59;16.45;;;10.48;;
68310;SDS011;55157;51.036;17.058;2023-05-14T02:27:24;17.63;;;9.52;;
68310;SDS011;55157;51.036;17.058;2023-05-14T02:29:51;16.50;;;9.70;;
68310;SDS011;55157;51.036;17.058;2023-05-14T02:32:16;16.67;;;10.40;;
68310;SDS011;55157;51.036;17.058;2023-05-14T02:34:41;15.30;;;10.05;;
68310;SDS011;55157;51.036;17.058;2023-05-14T02:37:07;15.43;;;9.07;;
68310;SDS011;55157;51.036;17.058;2023-05-14T02:39:32;15.57;;;9.43;;
68310;SDS011;55157;51.036;17.058;2023-05-14T02:41:57;16.27;;;10.15;;
68310;SDS011;55157;51.036;17.058;2023-05-14T02:44:23;18.15;;;8.65;;
68310;SDS011;55157;51.036;17.058;2023-05-14T02:46:49;19.83;;;10.45;;
68310;SDS011;55157;51.036;17.058;2023-05-14T02:49:15;16.60;;;9.57;;
68310;SDS011;55157;51.036;17.058;2023-05-14T02:51:40;17.60;;;8.75;;
68310;SDS011;55157;51.036;17.058;2023-05-14T02:54:05;16.10;;;9.82;;
68310;SDS011;55157;51.036;17.058;2023-05-14T02:56:31;16.45;;;9.68;;
68310;SDS011;55157;51.036;17.058;2023-05-14T02:58:56;20.13;;;10.15;;
68310;SDS011;55157;51.036;17.058;2023-05-14T03:01:21;18.23;;;9.38;;
68310;SDS011;55157;51.036;17.058;2023-05-14T03:03:48;13.93;;;8.98;;
68310;SDS011;55157;51.036;17.058;2023-05-14T03:06:13;16.63;;;9.07;;
68310;SDS011;55157;51.036;17.058;2023-05-14T03:08:38;15.32;;;9.13;;
68310;SDS011;55157;51.036;17.058;2023-05-14T03:11:03;17.08;;;9.10;;
68310;SDS011;55157;51.036;17.058;2023-05-14T03:13:29;20.02;;;10.05;;
68310;SDS011;55157;51.036;17.058;2023-05-14T03:15:54;17.27;;;9.73;;
68310;SDS011;55157;51.036;17.058;2023-05-14T03:18:19;19.70;;;11.68;;
68310;SDS011;55157;51.036;17.058;2023-05-14T03:20:46;16.20;;;10.13;;
68310;SDS011;55157;51.036;17.058;2023-05-14T03:23:11;13.38;;;9.60;;
68310;SDS011;55157;51.036;17.058;2023-05-14T03:25:37;13.52;;;9.40;;
68310;SDS011;55157;51.036;17.058;2023-05-14T03:28:02;24.42;;;10.05;;
68310;SDS011;55157;51.036;17.058;2023-05-14T03:30:27;18.35;;;10.68;;
68310;SDS011;55157;51.036;17.058;2023-05-14T03:32:53;15.43;;;9.65;;
68310;SDS011;55157;51.036;17.058;2023-05-14T03:35:18;16.65;;;10.40;;
68310;SDS011;55157;51.036;17.058;2023-05-14T03:37:45;17.83;;;9.60;;
68310;SDS011;55157;51.036;17.058;2023-05-14T03:40:10;17.67;;;9.77;;
68310;SDS011;55157;51.036;17.058;2023-05-14T03:42:35;11.43;;;8.70;;
68310;SDS011;55157;51.036;17.058;2023-05-14T03:45:01;15.32;;;8.93;;
68310;SDS011;55157;51.036;17.058;2023-05-14T03:47:26;15.80;;;8.88;;
68310;SDS011;55157;51.036;17.058;2023-05-14T03:49:51;19.63;;;9.13;;
68310;SDS011;55157;51.036;17.058;2023-05-14T03:52:16;12.93;;;8.80;;
68310;SDS011;55157;51.036;17.058;2023-05-14T03:54:43;20.63;;;9.13;;
68310;SDS011;55157;51.036;17.058;2023-05-14T03:57:08;12.80;;;8.85;;
68310;SDS011;55157;51.036;17.058;2023-05-14T03:59:34;16.50;;;9.23;;
68310;SDS011;55157;51.036;17.058;2023-05-14T04:01:59;15.18;;;8.88;;
68310;SDS011;55157;51.036;17.058;2023-05-14T04:04:24;13.35;;;9.18;;
68310;SDS011;55157;51.036;17.058;2023-05-14T04:06:49;15.52;;;8.85;;
68310;SDS011;55157;51.036;17.058;2023-05-14T04:09:15;12.18;;;8.82;;
68310;SDS011;55157;51.036;17.058;2023-05-14T04:11:41;16.73;;;9.13;;
68310;SDS011;55157;51.036;17.058;2023-05-14T04:14:06;16.67;;;9.98;;
68310;SDS011;55157;51.036;17.058;2023-05-14T04:16:32;16.35;;;8.95;;
68310;SDS011;55157;51.036;17.058;2023-05-14T04:18:58;12.85;;;9.50;;
68310;SDS011;55157;51.036;17.058;2023-05-14T04:21:24;19.55;;;9.85;;
68310;SDS011;55157;51.036;17.058;2023-05-14T04:23:49;18.35;;;8.98;;
68310;SDS011;55157;51.036;17.058;2023-05-14T04:26:14;14.05;;;9.27;;
68310;SDS011;55157;51.036;17.058;2023-05-14T04:28:41;12.15;;;9.45;;
68310;SDS011;55157;51.036;17.058;2023-05-14T04:31:06;16.48;;;9.63;;
68310;SDS011;55157;51.036;17.058;2023-05-14T04:33:31;16.33;;;9.50;;
68310;SDS011;55157;51.036;17.058;2023-05-14T04:35:56;17.02;;;8.70;;
68310;SDS011;55157;51.036;17.058;2023-05-14T04:38:22;17.17;;;8.27;;
68310;SDS011;55157;51.036;17.058;2023-05-14T04:40:47;15.90;;;9.52;;
68310;SDS011;55157;51.036;17.058;2023-05-14T04:43:12;18.23;;;9.00;;
68310;SDS011;55157;51.036;17.058;2023-05-14T04:45:39;14.35;;;8.82;;
68310;SDS011;55157;51.036;17.058;2023-05-14T04:48:04;18.38;;;9.30;;
68310;SDS011;55157;51.036;17.058;2023-05-14T04:50:30;14.88;;;8.45;;
68310;SDS011;55157;51.036;17.058;2023-05-14T04:52:55;17.65;;;8.68;;
68310;SDS011;55157;51.036;17.058;2023-05-14T04:55:20;13.50;;;8.10;;
68310;SDS011;55157;51.036;17.058;2023-05-14T04:57:45;14.70;;;7.80;;
68310;SDS011;55157;51.036;17.058;2023-05-14T05:00:11;13.27;;;7.97;;
68310;SDS011;55157;51.036;17.058;2023-05-14T05:02:38;14.30;;;8.93;;
68310;SDS011;55157;51.036;17.058;2023-05-14T05:05:04;17.77;;;7.75;;
68310;SDS011;55157;51.036;17.058;2023-05-14T05:07:29;12.80;;;8.25;;
68310;SDS011;55157;51.036;17.058;2023-05-14T05:09:54;17.88;;;8.13;;
68310;SDS011;55157;51.036;17.058;2023-05-14T05:12:20;11.85;;;7.82;;
68310;SDS011;55157;51.036;17.058;2023-05-14T05:14:45;14.60;;;8.57;;
68310;SDS011;55157;51.036;17.058;2023-05-14T05:17:10;15.50;;;8.68;;
68310;SDS011;55157;51.036;17.058;2023-05-14T05:19:37;12.50;;;8.20;;
68310;SDS011;55157;51.036;17.058;2023-05-14T05:22:02;12.48;;;7.93;;
68310;SDS011;55157;51.036;17.058;2023-05-14T05:24:28;12.63;;;8.27;;
68310;SDS011;55157;51.036;17.058;2023-05-14T05:26:53;11.75;;;8.35;;
68310;SDS011;55157;51.036;17.058;2023-05-14T05:29:18;11.85;;;7.85;;
68310;SDS011;55157;51.036;17.058;2023-05-14T05:31:43;17.00;;;7.75;;
68310;SDS011;55157;51.036;17.058;2023-05-14T05:34:09;9.77;;;7.40;;
68310;SDS011;55157;51.036;17.058;2023-05-14T05:36:35;13.80;;;7.55;;
68310;SDS011;55157;51.036;17.058;2023-05-14T05:39:01;12.98;;;7.28;;
68310;SDS011;55157;51.036;17.058;2023-05-14T05:41:26;11.93;;;7.63;;
68310;SDS011;55157;51.036;17.058;2023-05-14T05:43:51;14.48;;;7.10;;
68310;SDS011;55157;51.036;17.058;2023-05-14T05:46:17;13.38;;;8.02;;
68310;SDS011;55157;51.036;17.058;2023-05-14T05:48:43;11.40;;;7.70;;
68310;SDS011;55157;51.036;17.058;2023-05-14T05:51:08;17.27;;;6.93;;
68310;SDS011;55157;51.036;17.058;2023-05-14T05:53:35;13.45;;;7.53;;
68310;SDS011;55157;51.036;17.058;2023-05-14T05:56:00;13.85;;;7.55;;
68310;SDS011;55157;51.036;17.058;2023-05-14T05:58:25;12.35;;;9.02;;
68310;SDS011;55157;51.036;17.058;2023-05-14T06:00:50;17.30;;;7.57;;
68310;SDS011;55157;51.036;17.058;2023-05-14T06:03:16;17.35;;;8.40;;
68310;SDS011;55157;51.036;17.058;2023-05-14T06:05:41;11.60;;;7.65;;
68310;SDS011;55157;51.036;17.058;2023-05-14T06:08:06;11.13;;;7.55;;
68310;SDS011;55157;51.036;17.058;2023-05-14T06:10:33;15.98;;;7.63;;
68310;SDS011;55157;51.036;17.058;2023-05-14T06:12:58;13.15;;;7.68;;
68310;SDS011;55157;51.036;17.058;2023-05-14T06:15:23;10.93;;;7.85;;
68310;SDS011;55157;51.036;17.058;2023-05-14T06:17:49;14.90;;;8.05;;
68310;SDS011;55157;51.036;17.058;2023-05-14T06:20:14;9.35;;;6.95;;
68310;SDS011;55157;51.036;17.058;2023-05-14T06:22:39;11.27;;;7.90;;
68310;SDS011;55157;51.036;17.058;2023-05-14T06:25:05;15.63;;;8.23;;
68310;SDS011;55157;51.036;17.058;2023-05-14T06:27:32;14.30;;;8.18;;
68310;SDS011;55157;51.036;17.058;2023-05-14T06:29:57;17.30;;;8.10;;
68310;SDS011;55157;51.036;17.058;2023-05-14T06:32:22;18.48;;;8.40;;
68310;SDS011;55157;51.036;17.058;2023-05-14T06:34:47;15.05;;;7.85;;
68310;SDS011;55157;51.036;17.058;2023-05-14T06:37:12;15.32;;;8.18;;
68310;SDS011;55157;51.036;17.058;2023-05-14T06:39:39;12.88;;;8.05;;
68310;SDS011;55157;51.036;17.058;2023-05-14T06:42:05;13.70;;;7.00;;
68310;SDS011;55157;51.036;17.058;2023-05-14T06:44:32;16.63;;;7.90;;
68310;SDS011;55157;51.036;17.058;2023-05-14T06:46:57;11.23;;;7.82;;
68310;SDS011;55157;51.036;17.058;2023-05-14T06:49:22;14.23;;;8.50;;
68310;SDS011;55157;51.036;17.058;2023-05-14T06:51:47;11.32;;;7.00;;
68310;SDS011;55157;51.036;17.058;2023-05-14T06:54:13;18.02;;;7.43;;
68310;SDS011;55157;51.036;17.058;2023-05-14T06:56:38;15.45;;;6.45;;
68310;SDS011;55157;51.036;17.058;2023-05-14T06:59:03;13.45;;;7.22;;
68310;SDS011;55157;51.036;17.058;2023-05-14T07:01:30;11.05;;;5.90;;
68310;SDS011;55157;51.036;17.058;2023-05-14T07:03:56;10.90;;;5.10;;
68310;SDS011;55157;51.036;17.058;2023-05-14T07:06:21;9.00;;;5.05;;
68310;SDS011;55157;51.036;17.058;2023-05-14T07:08:46;8.52;;;5.10;;
68310;SDS011;55157;51.036;17.058;2023-05-14T07:11:11;13.30;;;5.60;;
68310;SDS011;55157;51.036;17.058;2023-05-14T07:13:37;9.27;;;5.30;;
68310;SDS011;55157;51.036;17.058;2023-05-14T07:16:02;13.43;;;5.25;;
68310;SDS011;55157;51.036;17.058;2023-05-14T07:18:29;10.30;;;4.53;;
68310;SDS011;55157;51.036;17.058;2023-05-14T07:20:54;12.75;;;4.43;;
68310;SDS011;55157;51.036;17.058;2023-05-14T07:23:19;8.25;;;4.13;;
68310;SDS011;55157;51.036;17.058;2023-05-14T07:25:45;8.40;;;3.63;;
68310;SDS011;55157;51.036;17.058;2023-05-14T07:28:10;8.63;;;4.20;;
68310;SDS011;55157;51.036;17.058;2023-05-14T07:30:35;6.90;;;3.58;;
68310;SDS011;55157;51.036;17.058;2023-05-14T07:33:00;5.30;;;3.40;;
68310;SDS011;55157;51.036;17.058;2023-05-14T07:35:27;6.82;;;3.47;;
68310;SDS011;55157;51.036;17.058;2023-05-14T07:37:52;8.93;;;3.40;;
68310;SDS011;55157;51.036;17.058;2023-05-14T07:40:18;7.63;;;3.20;;
68310;SDS011;55157;51.036;17.058;2023-05-14T07:42:43;7.40;;;4.20;;
68310;SDS011;55157;51.036;17.058;2023-05-14T07:45:09;9.02;;;3.22;;
68310;SDS011;55157;51.036;17.058;2023-05-14T07:47:34;6.97;;;3.40;;
68310;SDS011;55157;51.036;17.058;2023-05-14T07:49:59;8.60;;;3.08;;
68310;SDS011;55157;51.036;17.058;2023-05-14T07:52:26;8.98;;;3.40;;
68310;SDS011;55157;51.036;17.058;2023-05-14T07:54:51;5.57;;;3.05;;
68310;SDS011;55157;51.036;17.058;2023-05-14T07:57:16;6.72;;;3.50;;
68310;SDS011;55157;51.036;17.058;2023-05-14T07:59:42;10.15;;;3.60;;
68310;SDS011;55157;51.036;17.058;2023-05-14T08:02:07;8.45;;;2.85;;
68310;SDS011;55157;51.036;17.058;2023-05-14T08:04:32;8.65;;;2.45;;
68310;SDS011;55157;51.036;17.058;2023-05-14T08:06:57;4.45;;;2.60;;
68310;SDS011;55157;51.036;17.058;2023-05-14T08:09:24;7.70;;;2.88;;
68310;SDS011;55157;51.036;17.058;2023-05-14T08:11:49;5.25;;;2.80;;
68310;SDS011;55157;51.036;17.058;2023-05-14T08:14:15;6.63;;;2.33;;
68310;SDS011;55157;51.036;17.058;2023-05-14T08:16:40;5.53;;;2.40;;
68310;SDS011;55157;51.036;17.058;2023-05-14T08:19:05;8.63;;;2.97;;
68310;SDS011;55157;51.036;17.058;2023-05-14T08:21:30;4.25;;;2.63;;
68310;SDS011;55157;51.036;17.058;2023-05-14T08:23:57;4.20;;;2.60;;
68310;SDS011;55157;51.036;17.058;2023-05-14T08:26:24;8.43;;;2.53;;
68310;SDS011;55157;51.036;17.058;2023-05-14T08:28:49;6.70;;;2.78;;
68310;SDS011;55157;51.036;17.058;2023-05-14T08:31:15;6.45;;;2.70;;
68310;SDS011;55157;51.036;17.058;2023-05-14T08:33:40;4.68;;;2.58;;
68310;SDS011;55157;51.036;17.058;2023-05-14T08:36:06;5.13;;;2.67;;
68310;SDS011;55157;51.036;17.058;2023-05-14T08:38:31;3.45;;;2.17;;
68310;SDS011;55157;51.036;17.058;2023-05-14T08:40:56;3.50;;;2.35;;
68310;SDS011;55157;51.036;17.058;2023-05-14T08:43:24;10.35;;;2.67;;
68310;SDS011;55157;51.036;17.058;2023-05-14T08:45:50;4.57;;;2.38;;
68310;SDS011;55157;51.036;17.058;2023-05-14T08:48:18;5.00;;;2.13;;
68310;SDS011;55157;51.036;17.058;2023-05-14T08:50:44;13.68;;;2.60;;
68310;SDS011;55157;51.036;17.058;2023-05-14T08:53:09;3.55;;;2.10;;
68310;SDS011;55157;51.036;17.058;2023-05-14T08:55:35;5.07;;;2.60;;
68310;SDS011;55157;51.036;17.058;2023-05-14T08:58:01;5.50;;;2.00;;
68310;SDS011;55157;51.036;17.058;2023-05-14T09:00:28;3.45;;;2.03;;
68310;SDS011;55157;51.036;17.058;2023-05-14T09:02:53;5.32;;;2.28;;
68310;SDS011;55157;51.036;17.058;2023-05-14T09:05:19;10.45;;;2.22;;
68310;SDS011;55157;51.036;17.058;2023-05-14T09:07:44;22.45;;;3.65;;
68310;SDS011;55157;51.036;17.058;2023-05-14T09:10:10;3.17;;;2.00;;
68310;SDS011;55157;51.036;17.058;2023-05-14T09:12:35;12.98;;;2.35;;
68310;SDS011;55157;51.036;17.058;2023-05-14T09:15:01;2.97;;;1.95;;
68310;SDS011;55157;51.036;17.058;2023-05-14T09:17:27;2.72;;;1.73;;
68310;SDS011;55157;51.036;17.058;2023-05-14T09:19:52;4.85;;;1.63;;
68310;SDS011;55157;51.036;17.058;2023-05-14T09:22:18;3.90;;;2.13;;
68310;SDS011;55157;51.036;17.058;2023-05-14T09:24:43;3.00;;;2.03;;
68310;SDS011;55157;51.036;17.058;2023-05-14T09:27:14;4.18;;;1.95;;
68310;SDS011;55157;51.036;17.058;2023-05-14T09:29:39;4.95;;;1.90;;
68310;SDS011;55157;51.036;17.058;2023-05-14T09:32:04;2.55;;;1.67;;
68310;SDS011;55157;51.036;17.058;2023-05-14T09:34:31;4.53;;;1.48;;
68310;SDS011;55157;51.036;17.058;2023-05-14T09:36:57;2.05;;;1.33;;
68310;SDS011;55157;51.036;17.058;2023-05-14T09:39:23;4.72;;;1.80;;
68310;SDS011;55157;51.036;17.058;2023-05-14T09:41:48;2.25;;;1.52;;
68310;SDS011;55157;51.036;17.058;2023-05-14T09:44:13;2.03;;;1.40;;
68310;SDS011;55157;51.036;17.058;2023-05-14T09:46:39;2.45;;;1.33;;
68310;SDS011;55157;51.036;17.058;2023-05-14T09:49:04;4.50;;;1.95;;
68310;SDS011;55157;51.036;17.058;2023-05-14T09:51:31;2.65;;;1.20;;
68310;SDS011;55157;51.036;17.058;2023-05-14T09:53:56;2.72;;;1.30;;
68310;SDS011;55157;51.036;17.058;2023-05-14T09:56:21;2.25;;;1.20;;
68310;SDS011;55157;51.036;17.058;2023-05-14T09:58:47;1.67;;;1.40;;
68310;SDS011;55157;51.036;17.058;2023-05-14T10:01:12;2.42;;;1.55;;
68310;SDS011;55157;51.036;17.058;2023-05-14T10:03:38;2.15;;;1.40;;
68310;SDS011;55157;51.036;17.058;2023-05-14T10:06:04;3.55;;;1.30;;
68310;SDS011;55157;51.036;17.058;2023-05-14T10:08:32;10.05;;;2.22;;
68310;SDS011;55157;51.036;17.058;2023-05-14T10:10:58;5.80;;;1.75;;
68310;SDS011;55157;51.036;17.058;2023-05-14T10:13:26;3.13;;;1.52;;
68310;SDS011;55157;51.036;17.058;2023-05-14T10:15:56;4.55;;;1.60;;
68310;SDS011;55157;51.036;17.058;2023-05-14T10:18:24;2.22;;;1.45;;
68310;SDS011;55157;51.036;17.058;2023-05-14T10:20:54;2.10;;;1.27;;
68310;SDS011;55157;51.036;17.058;2023-05-14T10:23:21;8.80;;;1.67;;
68310;SDS011;55157;51.036;17.058;2023-05-14T10:25:48;1.77;;;1.15;;
68310;SDS011;55157;51.036;17.058;2023-05-14T10:28:13;1.52;;;1.10;;
68310;SDS011;55157;51.036;17.058;2023-05-14T10:30:40;4.88;;;2.15;;
68310;SDS011;55157;51.036;17.058;2023-05-14T10:33:07;3.22;;;1.48;;
68310;SDS011;55157;51.036;17.058;2023-05-14T10:38:13;11.05;;;2.00;;
68310;SDS011;55157;51.036;17.058;2023-05-14T10:40:38;3.83;;;1.67;;
68310;SDS011;55157;51.036;17.058;2023-05-14T10:43:05;2.97;;;1.35;;
68310;SDS011;55157;51.036;17.058;2023-05-14T10:45:31;5.07;;;1.52;;
68310;SDS011;55157;51.036;17.058;2023-05-14T10:47:56;2.05;;;1.40;;
68310;SDS011;55157;51.036;17.058;2023-05-14T10:50:21;5.13;;;1.55;;
68310;SDS011;55157;51.036;17.058;2023-05-14T10:52:47;2.97;;;1.53;;
68310;SDS011;55157;51.036;17.058;2023-05-14T10:55:13;2.65;;;1.80;;
68310;SDS011;55157;51.036;17.058;2023-05-14T10:57:39;6.00;;;1.92;;
68310;SDS011;55157;51.036;17.058;2023-05-14T11:00:07;4.85;;;2.13;;
68310;SDS011;55157;51.036;17.058;2023-05-14T11:02:33;3.38;;;1.70;;
68310;SDS011;55157;51.036;17.058;2023-05-14T11:05:00;1.67;;;1.38;;
68310;SDS011;55157;51.036;17.058;2023-05-14T11:07:29;2.53;;;1.80;;
68310;SDS011;55157;51.036;17.058;2023-05-14T11:10:01;2.55;;;1.85;;
68310;SDS011;55157;51.036;17.058;2023-05-14T11:14:52;3.40;;;1.90;;
68310;SDS011;55157;51.036;17.058;2023-05-14T11:17:19;3.05;;;1.30;;
68310;SDS011;55157;51.036;17.058;2023-05-14T11:19:44;2.67;;;1.67;;
68310;SDS011;55157;51.036;17.058;2023-05-14T11:22:09;2.77;;;1.70;;
68310;SDS011;55157;51.036;17.058;2023-05-14T11:24:35;3.87;;;1.43;;
68310;SDS011;55157;51.036;17.058;2023-05-14T11:27:00;2.30;;;1.57;;
68310;SDS011;55157;51.036;17.058;2023-05-14T11:29:25;3.23;;;1.80;;
68310;SDS011;55157;51.036;17.058;2023-05-14T11:31:50;4.40;;;1.30;;
68310;SDS011;55157;51.036;17.058;2023-05-14T11:34:17;5.82;;;1.63;;
68310;SDS011;55157;51.036;17.058;2023-05-14T11:36:42;3.80;;;1.98;;
68310;SDS011;55157;51.036;17.058;2023-05-14T11:39:08;4.95;;;1.55;;
68310;SDS011;55157;51.036;17.058;2023-05-14T11:41:33;2.20;;;1.40;;
68310;SDS011;55157;51.036;17.058;2023-05-14T11:43:58;2.67;;;1.23;;
68310;SDS011;55157;51.036;17.058;2023-05-14T11:46:23;4.38;;;2.03;;
68310;SDS011;55157;51.036;17.058;2023-05-14T11:48:49;2.57;;;1.70;;
68310;SDS011;55157;51.036;17.058;2023-05-14T11:51:15;3.72;;;1.80;;
68310;SDS011;55157;51.036;17.058;2023-05-14T11:53:41;10.23;;;1.83;;
68310;SDS011;55157;51.036;17.058;2023-05-14T11:56:06;9.00;;;1.90;;
68310;SDS011;55157;51.036;17.058;2023-05-14T11:58:31;4.13;;;2.25;;
68310;SDS011;55157;51.036;17.058;2023-05-14T12:00:57;3.58;;;1.80;;
68310;SDS011;55157;51.036;17.058;2023-05-14T12:03:22;5.40;;;1.45;;
68310;SDS011;55157;51.036;17.058;2023-05-14T12:05:53;7.60;;;1.70;;
68310;SDS011;55157;51.036;17.058;2023-05-14T12:08:20;8.35;;;2.22;;
68310;SDS011;55157;51.036;17.058;2023-05-14T12:10:46;5.10;;;1.92;;
68310;SDS011;55157;51.036;17.058;2023-05-14T12:13:13;2.88;;;1.73;;
68310;SDS011;55157;51.036;17.058;2023-05-14T12:15:38;2.42;;;1.67;;
68310;SDS011;55157;51.036;17.058;2023-05-14T12:18:07;3.25;;;1.80;;
68310;SDS011;55157;51.036;17.058;2023-05-14T12:20:32;6.55;;;2.60;;
68310;SDS011;55157;51.036;17.058;2023-05-14T12:22:57;2.97;;;2.25;;
68310;SDS011;55157;51.036;17.058;2023-05-14T12:25:24;4.13;;;2.40;;
68310;SDS011;55157;51.036;17.058;2023-05-14T12:27:49;4.25;;;2.90;;
68310;SDS011;55157;51.036;17.058;2023-05-14T12:30:15;4.32;;;2.00;;
68310;SDS011;55157;51.036;17.058;2023-05-14T12:32:40;11.13;;;4.25;;
68310;SDS011;55157;51.036;17.058;2023-05-14T12:35:05;7.18;;;2.20;;
68310;SDS011;55157;51.036;17.058;2023-05-14T12:37:31;4.78;;;2.40;;
68310;SDS011;55157;51.036;17.058;2023-05-14T12:39:56;7.50;;;2.80;;
68310;SDS011;55157;51.036;17.058;2023-05-14T12:42:23;4.27;;;2.57;;
68310;SDS011;55157;51.036;17.058;2023-05-14T12:44:48;3.97;;;2.47;;
68310;SDS011;55157;51.036;17.058;2023-05-14T12:47:13;4.50;;;2.55;;
68310;SDS011;55157;51.036;17.058;2023-05-14T12:49:38;6.27;;;2.87;;
68310;SDS011;55157;51.036;17.058;2023-05-14T12:52:04;17.92;;;3.25;;
68310;SDS011;55157;51.036;17.058;2023-05-14T12:54:30;6.40;;;2.50;;
68310;SDS011;55157;51.036;17.058;2023-05-14T12:56:55;9.82;;;2.65;;
68310;SDS011;55157;51.036;17.058;2023-05-14T12:59:22;6.13;;;3.30;;
68310;SDS011;55157;51.036;17.058;2023-05-14T13:01:47;4.40;;;2.70;;
68310;SDS011;55157;51.036;17.058;2023-05-14T13:04:13;7.00;;;2.58;;
68310;SDS011;55157;51.036;17.058;2023-05-14T13:06:38;6.50;;;2.80;;
68310;SDS011;55157;51.036;17.058;2023-05-14T13:09:03;4.80;;;2.67;;
68310;SDS011;55157;51.036;17.058;2023-05-14T13:11:29;17.67;;;3.08;;
68310;SDS011;55157;51.036;17.058;2023-05-14T13:13:54;13.32;;;3.45;;
68310;SDS011;55157;51.036;17.058;2023-05-14T13:16:21;4.72;;;2.95;;
68310;SDS011;55157;51.036;17.058;2023-05-14T13:18:46;5.80;;;2.70;;
68310;SDS011;55157;51.036;17.058;2023-05-14T13:21:11;8.63;;;3.58;;
68310;SDS011;55157;51.036;17.058;2023-05-14T13:23:37;6.85;;;3.10;;
68310;SDS011;55157;51.036;17.058;2023-05-14T13:26:02;4.45;;;2.80;;
68310;SDS011;55157;51.036;17.058;2023-05-14T13:28:27;3.65;;;2.63;;
68310;SDS011;55157;51.036;17.058;2023-05-14T13:31:03;7.82;;;4.07;;
68310;SDS011;55157;51.036;17.058;2023-05-14T13:33:30;6.82;;;3.40;;
68310;SDS011;55157;51.036;17.058;2023-05-14T13:35:55;9.88;;;3.45;;
68310;SDS011;55157;51.036;17.058;2023-05-14T13:38:20;5.53;;;2.88;;
68310;SDS011;55157;51.036;17.058;2023-05-14T13:40:45;6.80;;;2.90;;
68310;SDS011;55157;51.036;17.058;2023-05-14T13:43:11;12.13;;;4.10;;
68310;SDS011;55157;51.036;17.058;2023-05-14T13:45:36;7.35;;;3.15;;
68310;SDS011;55157;51.036;17.058;2023-05-14T13:48:01;6.20;;;3.22;;
68310;SDS011;55157;51.036;17.058;2023-05-14T13:50:28;5.40;;;3.65;;
68310;SDS011;55157;51.036;17.058;2023-05-14T13:52:53;3.85;;;2.85;;
68310;SDS011;55157;51.036;17.058;2023-05-14T13:55:18;9.43;;;3.42;;
68310;SDS011;55157;51.036;17.058;2023-05-14T13:57:43;8.10;;;4.00;;
68310;SDS011;55157;51.036;17.058;2023-05-14T14:00:09;9.07;;;3.97;;
68310;SDS011;55157;51.036;17.058;2023-05-14T14:02:34;11.18;;;3.88;;
68310;SDS011;55157;51.036;17.058;2023-05-14T14:05:00;7.70;;;4.17;;
68310;SDS011;55157;51.036;17.058;2023-05-14T14:07:26;5.90;;;3.65;;
68310;SDS011;55157;51.036;17.058;2023-05-14T14:09:52;6.22;;;4.35;;
68310;SDS011;55157;51.036;17.058;2023-05-14T14:12:17;6.65;;;4.10;;
68310;SDS011;55157;51.036;17.058;2023-05-14T14:14:42;10.02;;;4.70;;
68310;SDS011;55157;51.036;17.058;2023-05-14T14:17:07;12.40;;;4.93;;
68310;SDS011;55157;51.036;17.058;2023-05-14T14:19:33;7.45;;;4.88;;
68310;SDS011;55157;51.036;17.058;2023-05-14T14:21:58;5.93;;;4.07;;